sensor_id;sensor_type;location;lat;lon;timestamp;P1;durP1;ratioP1;P2;durP2;ratioP2
12770;SDS011;6449;47.666;9.160;2023-03-14T00:02:23;0.50;;;0.40;;
12770;SDS011;6449;47.666;9.160;2023-03-14T00:07:16;1.57;;;0.30;;
12770;SDS011;6449;47.666;9.160;2023-03-14T00:12:09;0.60;;;0.50;;
12770;SDS011;6449;47.666;9.160;2023-03-14T00:17:05;0.37;;;0.30;;
12770;SDS011;6449;47.666;9.160;2023-03-14T00:22:00;1.13;;;0.50;;
12770;SDS011;6449;47.666;9.160;2023-03-14T00:26:53;4.03;;;0.60;;
12770;SDS011;6449;47.666;9.160;2023-03-14T00:31:46;0.50;;;0.30;;
12770;SDS011;6449;47.666;9.160;2023-03-14T00:36:40;1.70;;;0.63;;
12770;SDS011;6449;47.666;9.160;2023-03-14T00:41:35;0.80;;;0.60;;
12770;SDS011;6449;47.666;9.160;2023-03-14T00:46:28;1.47;;;0.80;;
12770;SDS011;6449;47.666;9.160;2023-03-14T00:51:21;1.70;;;0.30;;
12770;SDS011;6449;47.666;9.160;2023-03-14T00:56:15;1.90;;;0.40;;
12770;SDS011;6449;47.666;9.160;2023-03-14T01:01:10;1.13;;;0.33;;
12770;SDS011;6449;47.666;9.160;2023-03-14T01:06:10;0.60;;;0.40;;
12770;SDS011;6449;47.666;9.160;2023-03-14T01:11:07;0.57;;;0.30;;
12770;SDS011;6449;47.666;9.160;2023-03-14T01:16:04;0.20;;;0.20;;
12770;SDS011;6449;47.666;9.160;2023-03-14T01:21:02;0.30;;;0.30;;
12770;SDS011;6449;47.666;9.160;2023-03-14T01:26:01;0.20;;;0.20;;
12770;SDS011;6449;47.666;9.160;2023-03-14T01:31:01;0.13;;;0.13;;
12770;SDS011;6449;47.666;9.160;2023-03-14T01:35:56;0.80;;;0.10;;
12770;SDS011;6449;47.666;9.160;2023-03-14T01:40:52;0.63;;;0.10;;
12770;SDS011;6449;47.666;9.160;2023-03-14T01:51:21;1.70;;;0.27;;
12770;SDS011;6449;47.666;9.160;2023-03-14T01:56:23;0.30;;;0.17;;
12770;SDS011;6449;47.666;9.160;2023-03-14T02:01:18;0.10;;;0.10;;
12770;SDS011;6449;47.666;9.160;2023-03-14T02:06:17;0.50;;;0.20;;
12770;SDS011;6449;47.666;9.160;2023-03-14T02:11:17;1.27;;;0.20;;
12770;SDS011;6449;47.666;9.160;2023-03-14T02:16:12;0.20;;;0.20;;
12770;SDS011;6449;47.666;9.160;2023-03-14T02:21:08;0.10;;;0.10;;
12770;SDS011;6449;47.666;9.160;2023-03-14T02:26:13;0.67;;;0.20;;
12770;SDS011;6449;47.666;9.160;2023-03-14T02:31:14;0.47;;;0.30;;
12770;SDS011;6449;47.666;9.160;2023-03-14T02:36:10;0.20;;;0.20;;
12770;SDS011;6449;47.666;9.160;2023-03-14T02:41:07;0.30;;;0.20;;
12770;SDS011;6449;47.666;9.160;2023-03-14T02:46:01;1.40;;;0.10;;
12770;SDS011;6449;47.666;9.160;2023-03-14T02:50:59;0.30;;;0.20;;
12770;SDS011;6449;47.666;9.160;2023-03-14T02:55:53;0.20;;;0.20;;
12770;SDS011;6449;47.666;9.160;2023-03-14T03:00:47;0.10;;;0.10;;
12770;SDS011;6449;47.666;9.160;2023-03-14T03:05:41;0.10;;;0.10;;
12770;SDS011;6449;47.666;9.160;2023-03-14T03:10:36;0.87;;;0.10;;
12770;SDS011;6449;47.666;9.160;2023-03-14T03:15:29;0.10;;;0.10;;
12770;SDS011;6449;47.666;9.160;2023-03-14T03:20:23;0.00;;;0.00;;
12770;SDS011;6449;47.666;9.160;2023-03-14T03:25:16;0.40;;;0.10;;
12770;SDS011;6449;47.666;9.160;2023-03-14T03:30:12;0.10;;;0.00;;
12770;SDS011;6449;47.666;9.160;2023-03-14T03:35:06;0.10;;;0.10;;
12770;SDS011;6449;47.666;9.160;2023-03-14T03:40:00;0.07;;;0.07;;
12770;SDS011;6449;47.666;9.160;2023-03-14T03:44:56;1.03;;;0.20;;
12770;SDS011;6449;47.666;9.160;2023-03-14T03:49:51;0.93;;;0.17;;
12770;SDS011;6449;47.666;9.160;2023-03-14T03:54:44;0.10;;;0.10;;
12770;SDS011;6449;47.666;9.160;2023-03-14T03:59:38;0.10;;;0.10;;
12770;SDS011;6449;47.666;9.160;2023-03-14T04:04:32;0.00;;;0.00;;
12770;SDS011;6449;47.666;9.160;2023-03-14T04:09:27;0.07;;;0.03;;
12770;SDS011;6449;47.666;9.160;2023-03-14T04:14:20;0.10;;;0.10;;
12770;SDS011;6449;47.666;9.160;2023-03-14T04:19:14;1.47;;;0.17;;
12770;SDS011;6449;47.666;9.160;2023-03-14T04:24:08;0.13;;;0.13;;
12770;SDS011;6449;47.666;9.160;2023-03-14T04:29:03;1.03;;;0.10;;
12770;SDS011;6449;47.666;9.160;2023-03-14T04:33:56;1.17;;;0.33;;
12770;SDS011;6449;47.666;9.160;2023-03-14T04:38:49;0.67;;;0.20;;
12770;SDS011;6449;47.666;9.160;2023-03-14T04:43:43;0.27;;;0.20;;
12770;SDS011;6449;47.666;9.160;2023-03-14T04:48:37;1.47;;;0.20;;
12770;SDS011;6449;47.666;9.160;2023-03-14T04:53:31;0.33;;;0.10;;
12770;SDS011;6449;47.666;9.160;2023-03-14T04:58:25;0.20;;;0.20;;
12770;SDS011;6449;47.666;9.160;2023-03-14T05:03:18;2.53;;;1.67;;
12770;SDS011;6449;47.666;9.160;2023-03-14T05:08:13;1.83;;;0.57;;
12770;SDS011;6449;47.666;9.160;2023-03-14T05:13:07;0.83;;;0.43;;
12770;SDS011;6449;47.666;9.160;2023-03-14T05:18:00;0.87;;;0.33;;
12770;SDS011;6449;47.666;9.160;2023-03-14T05:22:53;1.73;;;0.10;;
12770;SDS011;6449;47.666;9.160;2023-03-14T05:27:48;0.70;;;0.20;;
12770;SDS011;6449;47.666;9.160;2023-03-14T05:32:41;0.80;;;0.17;;
12770;SDS011;6449;47.666;9.160;2023-03-14T05:37:34;0.23;;;0.20;;
12770;SDS011;6449;47.666;9.160;2023-03-14T05:42:28;0.10;;;0.10;;
12770;SDS011;6449;47.666;9.160;2023-03-14T05:47:23;1.03;;;0.30;;
12770;SDS011;6449;47.666;9.160;2023-03-14T05:52:17;0.67;;;0.33;;
12770;SDS011;6449;47.666;9.160;2023-03-14T05:57:11;0.70;;;0.20;;
12770;SDS011;6449;47.666;9.160;2023-03-14T06:02:10;2.00;;;1.30;;
12770;SDS011;6449;47.666;9.160;2023-03-14T06:07:20;1.60;;;0.80;;
12770;SDS011;6449;47.666;9.160;2023-03-14T06:12:13;2.47;;;1.23;;
12770;SDS011;6449;47.666;9.160;2023-03-14T06:17:06;1.40;;;0.90;;
12770;SDS011;6449;47.666;9.160;2023-03-14T06:22:01;1.37;;;0.60;;
12770;SDS011;6449;47.666;9.160;2023-03-14T06:26:55;0.30;;;0.30;;
12770;SDS011;6449;47.666;9.160;2023-03-14T06:31:48;1.60;;;0.50;;
12770;SDS011;6449;47.666;9.160;2023-03-14T06:36:41;0.97;;;0.80;;
12770;SDS011;6449;47.666;9.160;2023-03-14T06:41:36;1.17;;;0.50;;
12770;SDS011;6449;47.666;9.160;2023-03-14T06:46:29;1.93;;;0.40;;
12770;SDS011;6449;47.666;9.160;2023-03-14T06:51:23;0.47;;;0.30;;
12770;SDS011;6449;47.666;9.160;2023-03-14T06:56:16;1.13;;;0.30;;
12770;SDS011;6449;47.666;9.160;2023-03-14T07:01:16;0.20;;;0.20;;
12770;SDS011;6449;47.666;9.160;2023-03-14T07:06:15;2.83;;;0.33;;
12770;SDS011;6449;47.666;9.160;2023-03-14T07:11:08;0.97;;;0.17;;
12770;SDS011;6449;47.666;9.160;2023-03-14T07:16:02;0.30;;;0.30;;
12770;SDS011;6449;47.666;9.160;2023-03-14T07:20:58;0.40;;;0.20;;
12770;SDS011;6449;47.666;9.160;2023-03-14T07:25:51;0.20;;;0.20;;
12770;SDS011;6449;47.666;9.160;2023-03-14T07:30:45;1.70;;;0.30;;
12770;SDS011;6449;47.666;9.160;2023-03-14T07:35:39;2.73;;;0.40;;
12770;SDS011;6449;47.666;9.160;2023-03-14T07:40:34;0.70;;;0.20;;
12770;SDS011;6449;47.666;9.160;2023-03-14T07:45:28;2.53;;;0.40;;
12770;SDS011;6449;47.666;9.160;2023-03-14T07:50:22;0.60;;;0.40;;
12770;SDS011;6449;47.666;9.160;2023-03-14T07:55:15;0.60;;;0.30;;
12770;SDS011;6449;47.666;9.160;2023-03-14T08:00:11;0.30;;;0.30;;
12770;SDS011;6449;47.666;9.160;2023-03-14T08:05:06;0.67;;;0.40;;
12770;SDS011;6449;47.666;9.160;2023-03-14T08:10:01;0.70;;;0.50;;
12770;SDS011;6449;47.666;9.160;2023-03-14T08:14:56;1.53;;;0.53;;
12770;SDS011;6449;47.666;9.160;2023-03-14T08:19:52;0.60;;;0.37;;
12770;SDS011;6449;47.666;9.160;2023-03-14T08:24:45;0.20;;;0.20;;
12770;SDS011;6449;47.666;9.160;2023-03-14T08:29:39;0.80;;;0.20;;
12770;SDS011;6449;47.666;9.160;2023-03-14T08:34:33;1.30;;;0.30;;
12770;SDS011;6449;47.666;9.160;2023-03-14T08:39:28;1.77;;;0.37;;
12770;SDS011;6449;47.666;9.160;2023-03-14T08:44:21;0.30;;;0.30;;
12770;SDS011;6449;47.666;9.160;2023-03-14T08:49:14;0.87;;;0.40;;
12770;SDS011;6449;47.666;9.160;2023-03-14T08:54:09;0.30;;;0.30;;
12770;SDS011;6449;47.666;9.160;2023-03-14T08:59:04;1.07;;;0.40;;
12770;SDS011;6449;47.666;9.160;2023-03-14T09:03:59;0.73;;;0.30;;
12770;SDS011;6449;47.666;9.160;2023-03-14T09:08:52;0.57;;;0.30;;
12770;SDS011;6449;47.666;9.160;2023-03-14T09:13:46;0.30;;;0.20;;
12770;SDS011;6449;47.666;9.160;2023-03-14T09:18:41;0.20;;;0.20;;
12770;SDS011;6449;47.666;9.160;2023-03-14T09:23:34;0.27;;;0.27;;
12770;SDS011;6449;47.666;9.160;2023-03-14T09:28:28;0.20;;;0.20;;
12770;SDS011;6449;47.666;9.160;2023-03-14T09:33:21;1.23;;;0.20;;
12770;SDS011;6449;47.666;9.160;2023-03-14T09:38:16;0.87;;;0.30;;
12770;SDS011;6449;47.666;9.160;2023-03-14T09:43:12;0.83;;;0.27;;
12770;SDS011;6449;47.666;9.160;2023-03-14T09:48:11;0.30;;;0.30;;
12770;SDS011;6449;47.666;9.160;2023-03-14T09:53:10;0.37;;;0.30;;
12770;SDS011;6449;47.666;9.160;2023-03-14T09:58:10;1.53;;;0.20;;
12770;SDS011;6449;47.666;9.160;2023-03-14T10:03:21;1.20;;;0.40;;
12770;SDS011;6449;47.666;9.160;2023-03-14T10:08:20;1.20;;;0.23;;
12770;SDS011;6449;47.666;9.160;2023-03-14T10:13:15;0.73;;;0.20;;
12770;SDS011;6449;47.666;9.160;2023-03-14T10:18:15;2.00;;;0.43;;
12770;SDS011;6449;47.666;9.160;2023-03-14T10:23:18;0.70;;;0.30;;
12770;SDS011;6449;47.666;9.160;2023-03-14T10:28:23;0.30;;;0.27;;
12770;SDS011;6449;47.666;9.160;2023-03-14T10:33:19;1.20;;;0.40;;
12770;SDS011;6449;47.666;9.160;2023-03-14T10:38:16;0.43;;;0.40;;
12770;SDS011;6449;47.666;9.160;2023-03-14T10:43:13;0.20;;;0.10;;
12770;SDS011;6449;47.666;9.160;2023-03-14T10:48:17;1.23;;;0.30;;
12770;SDS011;6449;47.666;9.160;2023-03-14T10:53:16;0.20;;;0.20;;
12770;SDS011;6449;47.666;9.160;2023-03-14T10:58:24;2.27;;;0.30;;
12770;SDS011;6449;47.666;9.160;2023-03-14T11:03:22;0.20;;;0.10;;
12770;SDS011;6449;47.666;9.160;2023-03-14T11:08:20;0.10;;;0.10;;
12770;SDS011;6449;47.666;9.160;2023-03-14T11:13:24;0.50;;;0.20;;
12770;SDS011;6449;47.666;9.160;2023-03-14T11:18:33;0.37;;;0.30;;
12770;SDS011;6449;47.666;9.160;2023-03-14T11:23:46;0.17;;;0.17;;
12770;SDS011;6449;47.666;9.160;2023-03-14T11:28:57;0.30;;;0.30;;
12770;SDS011;6449;47.666;9.160;2023-03-14T11:34:05;0.13;;;0.13;;
12770;SDS011;6449;47.666;9.160;2023-03-14T11:39:09;0.20;;;0.20;;
12770;SDS011;6449;47.666;9.160;2023-03-14T11:44:16;0.40;;;0.10;;
12770;SDS011;6449;47.666;9.160;2023-03-14T11:49:13;1.60;;;0.40;;
12770;SDS011;6449;47.666;9.160;2023-03-14T11:54:25;0.50;;;0.20;;
12770;SDS011;6449;47.666;9.160;2023-03-14T11:59:29;0.50;;;0.20;;
12770;SDS011;6449;47.666;9.160;2023-03-14T12:04:40;0.10;;;0.10;;
12770;SDS011;6449;47.666;9.160;2023-03-14T12:10:13;1.77;;;0.20;;
12770;SDS011;6449;47.666;9.160;2023-03-14T12:15:15;0.90;;;0.20;;
12770;SDS011;6449;47.666;9.160;2023-03-14T12:20:17;3.37;;;0.10;;
12770;SDS011;6449;47.666;9.160;2023-03-14T12:25:15;0.53;;;0.23;;
12770;SDS011;6449;47.666;9.160;2023-03-14T12:35:35;1.03;;;0.30;;
12770;SDS011;6449;47.666;9.160;2023-03-14T12:40:31;0.83;;;0.20;;
12770;SDS011;6449;47.666;9.160;2023-03-14T12:45:32;0.37;;;0.20;;
12770;SDS011;6449;47.666;9.160;2023-03-14T12:50:31;0.20;;;0.20;;
12770;SDS011;6449;47.666;9.160;2023-03-14T12:55:31;0.70;;;0.40;;
12770;SDS011;6449;47.666;9.160;2023-03-14T13:00:31;0.43;;;0.23;;
12770;SDS011;6449;47.666;9.160;2023-03-14T13:05:32;0.30;;;0.30;;
12770;SDS011;6449;47.666;9.160;2023-03-14T13:10:26;0.87;;;0.50;;
12770;SDS011;6449;47.666;9.160;2023-03-14T13:15:30;0.30;;;0.30;;
12770;SDS011;6449;47.666;9.160;2023-03-14T13:20:32;2.73;;;0.50;;
12770;SDS011;6449;47.666;9.160;2023-03-14T13:25:31;2.37;;;0.50;;
12770;SDS011;6449;47.666;9.160;2023-03-14T13:30:27;3.60;;;0.63;;
12770;SDS011;6449;47.666;9.160;2023-03-14T13:35:38;1.50;;;0.70;;
12770;SDS011;6449;47.666;9.160;2023-03-14T13:40:34;0.50;;;0.30;;
12770;SDS011;6449;47.666;9.160;2023-03-14T13:45:28;0.30;;;0.30;;
12770;SDS011;6449;47.666;9.160;2023-03-14T13:50:23;0.43;;;0.20;;
12770;SDS011;6449;47.666;9.160;2023-03-14T14:00:24;0.73;;;0.40;;
12770;SDS011;6449;47.666;9.160;2023-03-14T14:05:21;1.53;;;0.50;;
12770;SDS011;6449;47.666;9.160;2023-03-14T14:10:20;1.47;;;0.60;;
12770;SDS011;6449;47.666;9.160;2023-03-14T14:15:14;4.73;;;1.00;;
12770;SDS011;6449;47.666;9.160;2023-03-14T14:20:14;1.70;;;0.40;;
12770;SDS011;6449;47.666;9.160;2023-03-14T14:25:17;3.60;;;0.87;;
12770;SDS011;6449;47.666;9.160;2023-03-14T14:30:24;2.00;;;0.77;;
12770;SDS011;6449;47.666;9.160;2023-03-14T14:35:24;2.60;;;0.63;;
12770;SDS011;6449;47.666;9.160;2023-03-14T14:40:25;2.03;;;0.93;;
12770;SDS011;6449;47.666;9.160;2023-03-14T14:45:21;2.60;;;1.00;;
12770;SDS011;6449;47.666;9.160;2023-03-14T14:50:21;1.67;;;0.90;;
12770;SDS011;6449;47.666;9.160;2023-03-14T14:55:22;1.13;;;0.63;;
12770;SDS011;6449;47.666;9.160;2023-03-14T15:00:25;1.90;;;0.50;;
12770;SDS011;6449;47.666;9.160;2023-03-14T15:05:20;2.13;;;0.63;;
12770;SDS011;6449;47.666;9.160;2023-03-14T15:10:16;1.77;;;0.53;;
12770;SDS011;6449;47.666;9.160;2023-03-14T15:15:14;1.00;;;0.60;;
12770;SDS011;6449;47.666;9.160;2023-03-14T15:20:10;1.67;;;0.50;;
12770;SDS011;6449;47.666;9.160;2023-03-14T15:25:07;1.37;;;0.60;;
12770;SDS011;6449;47.666;9.160;2023-03-14T15:30:23;2.27;;;0.93;;
12770;SDS011;6449;47.666;9.160;2023-03-14T15:35:17;4.47;;;1.00;;
12770;SDS011;6449;47.666;9.160;2023-03-14T15:40:10;2.53;;;1.10;;
12770;SDS011;6449;47.666;9.160;2023-03-14T15:45:06;2.57;;;0.70;;
12770;SDS011;6449;47.666;9.160;2023-03-14T15:50:03;3.60;;;0.83;;
12770;SDS011;6449;47.666;9.160;2023-03-14T15:55:01;2.13;;;0.90;;
12770;SDS011;6449;47.666;9.160;2023-03-14T15:59:54;1.57;;;0.90;;
12770;SDS011;6449;47.666;9.160;2023-03-14T16:04:47;3.33;;;0.80;;
12770;SDS011;6449;47.666;9.160;2023-03-14T16:09:45;4.37;;;1.20;;
12770;SDS011;6449;47.666;9.160;2023-03-14T16:19:45;2.37;;;0.93;;
12770;SDS011;6449;47.666;9.160;2023-03-14T16:24:39;2.77;;;0.90;;
12770;SDS011;6449;47.666;9.160;2023-03-14T16:50:01;3.03;;;0.70;;
12770;SDS011;6449;47.666;9.160;2023-03-14T16:54:55;4.27;;;1.00;;
12770;SDS011;6449;47.666;9.160;2023-03-14T16:59:49;1.80;;;0.60;;
12770;SDS011;6449;47.666;9.160;2023-03-14T17:14:57;1.80;;;1.00;;
12770;SDS011;6449;47.666;9.160;2023-03-14T17:35:14;1.23;;;0.50;;
12770;SDS011;6449;47.666;9.160;2023-03-14T17:40:08;1.40;;;0.70;;
12770;SDS011;6449;47.666;9.160;2023-03-14T18:05:32;0.50;;;0.50;;
12770;SDS011;6449;47.666;9.160;2023-03-14T18:10:29;0.93;;;0.70;;
12770;SDS011;6449;47.666;9.160;2023-03-14T18:20:30;1.37;;;0.70;;
12770;SDS011;6449;47.666;9.160;2023-03-14T18:25:24;0.50;;;0.47;;
12770;SDS011;6449;47.666;9.160;2023-03-14T18:30:18;2.27;;;0.87;;
12770;SDS011;6449;47.666;9.160;2023-03-14T18:35:12;2.20;;;0.70;;
12770;SDS011;6449;47.666;9.160;2023-03-14T18:40:06;0.77;;;0.63;;
12770;SDS011;6449;47.666;9.160;2023-03-14T18:45:05;1.43;;;0.70;;
12770;SDS011;6449;47.666;9.160;2023-03-14T18:50:00;1.57;;;0.70;;
12770;SDS011;6449;47.666;9.160;2023-03-14T18:59:59;1.43;;;0.40;;
12770;SDS011;6449;47.666;9.160;2023-03-14T19:09:53;0.60;;;0.50;;
12770;SDS011;6449;47.666;9.160;2023-03-14T19:15:11;0.83;;;0.60;;
12770;SDS011;6449;47.666;9.160;2023-03-14T19:20:05;2.10;;;1.00;;
12770;SDS011;6449;47.666;9.160;2023-03-14T19:25:00;1.13;;;0.63;;
12770;SDS011;6449;47.666;9.160;2023-03-14T19:49:47;1.33;;;0.60;;
12770;SDS011;6449;47.666;9.160;2023-03-14T19:54:40;0.60;;;0.60;;
12770;SDS011;6449;47.666;9.160;2023-03-14T19:59:34;1.10;;;0.70;;
12770;SDS011;6449;47.666;9.160;2023-03-14T20:04:27;1.37;;;0.67;;
12770;SDS011;6449;47.666;9.160;2023-03-14T20:09:22;1.63;;;0.63;;
12770;SDS011;6449;47.666;9.160;2023-03-14T20:24:38;1.73;;;1.03;;
12770;SDS011;6449;47.666;9.160;2023-03-14T20:29:31;3.80;;;1.00;;
12770;SDS011;6449;47.666;9.160;2023-03-14T20:34:25;2.63;;;0.97;;
12770;SDS011;6449;47.666;9.160;2023-03-14T21:51:07;0.63;;;0.60;;
12770;SDS011;6449;47.666;9.160;2023-03-14T22:06:15;2.00;;;1.00;;
12770;SDS011;6449;47.666;9.160;2023-03-14T22:41:37;3.27;;;1.10;;
12770;SDS011;6449;47.666;9.160;2023-03-14T22:51:45;3.03;;;1.20;;
12770;SDS011;6449;47.666;9.160;2023-03-14T22:56:40;2.20;;;1.00;;
12770;SDS011;6449;47.666;9.160;2023-03-14T23:01:33;1.27;;;1.13;;
12770;SDS011;6449;47.666;9.160;2023-03-14T23:06:26;2.17;;;1.13;;
12770;SDS011;6449;47.666;9.160;2023-03-14T23:11:20;2.63;;;1.20;;
12770;SDS011;6449;47.666;9.160;2023-03-14T23:16:24;2.00;;;1.13;;
12770;SDS011;6449;47.666;9.160;2023-03-14T23:21:29;2.60;;;1.47;;
12770;SDS011;6449;47.666;9.160;2023-03-14T23:26:23;2.13;;;1.30;;
12770;SDS011;6449;47.666;9.160;2023-03-14T23:31:18;2.77;;;1.27;;
12770;SDS011;6449;47.666;9.160;2023-03-14T23:36:14;4.50;;;1.40;;
12770;SDS011;6449;47.666;9.160;2023-03-14T23:41:10;1.93;;;1.00;;
12770;SDS011;6449;47.666;9.160;2023-03-14T23:46:04;1.63;;;0.50;;
12770;SDS011;6449;47.666;9.160;2023-03-14T23:50:59;0.40;;;0.40;;
12770;SDS011;6449;47.666;9.160;2023-03-14T23:55:56;0.87;;;0.40;;
